^^
Station Historical Data
Daily Summary for January 31, 2018 Units:  Both    English   Metric
« Previous Day
Next Day »
Daily Weekly Monthly Yearly Custom
  High: Low: Average:
Temperature: TemperatureF °F /  -17.8 °C 69.3 °F /  20.7 °C 81.4 °F /  27.4 °C
Dew Point: DewpointF °F /  -17.8 °C 39.0 °F /  3.9 °C 41.7 °F /  5.4 °C
Humidity: Humidity% 19% 25%
Wind Speed: WindSpeedMPHmph /  0km/h - -3.6mph /  -5.8km/h
Wind Gust: WindSpeedGustMPHmph /  0km/h - -
Wind- - NNE
Pressure: PressureIn in /  0 hPa 29.40 in /  995.5 hPa -
Precipitation: 0.00 in /  0 mm    
Historical Graphs
 
 
Tabular Data for January 31, 2018
Time Temperature Dew Point Pressure Wind Wind Speed Wind Gust Humidity Rainfall Rate (Hourly) solar Conditions
TemperatureF °F /  -17.8 °C DewpointF °F /  -17.8 °C PressureInin /  0hPa Calm     Humidity% HourlyPrecipInin /  0mm SoftwareType W/m2 Conditions
08:41 69.3 °F /  20.7 °C 41.2 °F /  5.1 °C 29.49in /  998.5hPa North -999.9mph /  -1609.1km/h -999.0mph /  -1607.7km/h 36% 0.00in /  0mm meteobridge W/m2
08:47 69.4 °F /  20.8 °C 40.6 °F /  4.8 °C 29.49in /  998.5hPa NNE 4.9mph /  7.9km/h 12.0mph /  19.3km/h 35% 0.00in /  0mm meteobridge W/m2
08:54 70.3 °F /  21.3 °C 40.6 °F /  4.8 °C 29.50in /  998.9hPa NE 6.9mph /  11.1km/h 14.0mph /  22.5km/h 34% 0.00in /  0mm meteobridge W/m2
09:00 70.7 °F /  21.5 °C 41.0 °F /  5 °C 29.50in /  998.9hPa NNE 15.0mph /  24.1km/h 15.0mph /  24.1km/h 34% 0.00in /  0mm meteobridge W/m2
09:06 71.1 °F /  21.7 °C 40.5 °F /  4.7 °C 29.50in /  998.9hPa NNE 4.9mph /  7.9km/h 9.0mph /  14.5km/h 33% 0.00in /  0mm meteobridge W/m2
09:12 71.4 °F /  21.9 °C 40.8 °F /  4.9 °C 29.50in /  998.9hPa NNE 12.1mph /  19.5km/h 16.0mph /  25.7km/h 33% 0.00in /  0mm meteobridge W/m2
09:18 71.8 °F /  22.1 °C 40.3 °F /  4.6 °C 29.51in /  999.2hPa NNE 6.9mph /  11.1km/h 16.0mph /  25.7km/h 32% 0.00in /  0mm meteobridge W/m2
09:24 72.1 °F /  22.3 °C 39.0 °F /  3.9 °C 29.51in /  999.2hPa ENE 11.0mph /  17.7km/h 17.0mph /  27.4km/h 30% 0.00in /  0mm meteobridge W/m2
09:30 73.0 °F /  22.8 °C 41.4 °F /  5.2 °C 29.51in /  999.2hPa NE 6.0mph /  9.7km/h 15.0mph /  24.1km/h 32% 0.00in /  0mm meteobridge W/m2
09:36 73.6 °F /  23.1 °C 41.0 °F /  5 °C 29.51in /  999.2hPa North 6.9mph /  11.1km/h 10.0mph /  16.1km/h 31% 0.00in /  0mm meteobridge W/m2
09:42 74.1 °F /  23.4 °C 42.4 °F /  5.8 °C 29.51in /  999.2hPa East 10.1mph /  16.3km/h 11.0mph /  17.7km/h 32% 0.00in /  0mm meteobridge W/m2
09:48 73.8 °F /  23.2 °C 41.2 °F /  5.1 °C 29.52in /  999.5hPa East 6.0mph /  9.7km/h 18.0mph /  29km/h 31% 0.00in /  0mm meteobridge W/m2
09:54 74.5 °F /  23.6 °C 41.9 °F /  5.5 °C 29.52in /  999.5hPa East 6.0mph /  9.7km/h 9.0mph /  14.5km/h 31% 0.00in /  0mm meteobridge W/m2
10:00 75.6 °F /  24.2 °C 41.9 °F /  5.5 °C 29.51in /  999.2hPa ESE 4.9mph /  7.9km/h 13.0mph /  20.9km/h 30% 0.00in /  0mm meteobridge W/m2
10:06 75.6 °F /  24.2 °C 41.9 °F /  5.5 °C 29.51in /  999.2hPa SE 8.9mph /  14.3km/h 11.0mph /  17.7km/h 30% 0.00in /  0mm meteobridge W/m2
10:12 75.7 °F /  24.3 °C 43.0 °F /  6.1 °C 29.51in /  999.2hPa ESE 2.0mph /  3.2km/h 10.0mph /  16.1km/h 31% 0.00in /  0mm meteobridge W/m2
10:31 77.4 °F /  25.2 °C 41.7 °F /  5.4 °C 29.51in /  999.2hPa NE 6.9mph /  11.1km/h 11.0mph /  17.7km/h 28% 0.00in /  0mm meteobridge W/m2
10:37 78.1 °F /  25.6 °C 42.3 °F /  5.7 °C 29.51in /  999.2hPa ENE 4.0mph /  6.4km/h 6.0mph /  9.7km/h 28% 0.00in /  0mm meteobridge W/m2
10:43 79.0 °F /  26.1 °C 42.1 °F /  5.6 °C 29.51in /  999.2hPa NE 4.9mph /  7.9km/h 10.0mph /  16.1km/h 27% 0.00in /  0mm meteobridge W/m2
10:49 78.6 °F /  25.9 °C 42.8 °F /  6 °C 29.51in /  999.2hPa NNE 14.1mph /  22.7km/h 15.0mph /  24.1km/h 28% 0.00in /  0mm meteobridge W/m2
10:55 77.4 °F /  25.2 °C 41.7 °F /  5.4 °C 29.51in /  999.2hPa NNE 4.9mph /  7.9km/h 14.0mph /  22.5km/h 28% 0.00in /  0mm meteobridge W/m2
11:03 77.4 °F /  25.2 °C 41.7 °F /  5.4 °C 29.51in /  999.2hPa North 12.1mph /  19.5km/h 15.0mph /  24.1km/h 28% 0.00in /  0mm meteobridge W/m2
11:09 77.7 °F /  25.4 °C 42.1 °F /  5.6 °C 29.51in /  999.2hPa Calm   5.0mph /  8km/h 28% 0.00in /  0mm meteobridge W/m2
11:15 78.6 °F /  25.9 °C 42.8 °F /  6 °C 29.51in /  999.2hPa NNE 11.0mph /  17.7km/h 17.0mph /  27.4km/h 28% 0.00in /  0mm meteobridge W/m2
11:21 78.6 °F /  25.9 °C 42.8 °F /  6 °C 29.51in /  999.2hPa NNE 8.1mph /  13km/h 14.0mph /  22.5km/h 28% 0.00in /  0mm meteobridge W/m2
11:27 78.4 °F /  25.8 °C 42.6 °F /  5.9 °C 29.51in /  999.2hPa NNE 6.0mph /  9.7km/h 12.0mph /  19.3km/h 28% 0.00in /  0mm meteobridge W/m2
11:33 79.2 °F /  26.2 °C 43.2 °F /  6.2 °C 29.51in /  999.2hPa Calm   10.0mph /  16.1km/h 28% 0.00in /  0mm meteobridge W/m2
11:39 80.2 °F /  26.8 °C 43.2 °F /  6.2 °C 29.51in /  999.2hPa NNE 4.0mph /  6.4km/h 10.0mph /  16.1km/h 27% 0.00in /  0mm meteobridge W/m2
11:45 80.8 °F /  27.1 °C 43.7 °F /  6.5 °C 29.51in /  999.2hPa NW 0.9mph /  1.4km/h 2.0mph /  3.2km/h 27% 0.00in /  0mm meteobridge W/m2
11:52 80.6 °F /  27 °C 43.5 °F /  6.4 °C 29.50in /  998.9hPa North 6.0mph /  9.7km/h 11.0mph /  17.7km/h 27% 0.00in /  0mm meteobridge W/m2
11:58 80.6 °F /  27 °C 43.5 °F /  6.4 °C 29.50in /  998.9hPa NNE 6.9mph /  11.1km/h 13.0mph /  20.9km/h 27% 0.00in /  0mm meteobridge W/m2
12:04 81.1 °F /  27.3 °C 43.0 °F /  6.1 °C 29.50in /  998.9hPa NNE 4.9mph /  7.9km/h 13.0mph /  20.9km/h 26% 0.00in /  0mm meteobridge W/m2
12:10 81.0 °F /  27.2 °C 42.8 °F /  6 °C 29.50in /  998.9hPa West 2.9mph /  4.7km/h 6.0mph /  9.7km/h 26% 0.00in /  0mm meteobridge W/m2
12:16 81.9 °F /  27.7 °C 43.7 °F /  6.5 °C 29.50in /  998.9hPa North 8.1mph /  13km/h 14.0mph /  22.5km/h 26% 0.00in /  0mm meteobridge W/m2
12:22 81.7 °F /  27.6 °C 43.5 °F /  6.4 °C 29.49in /  998.5hPa NNW 6.9mph /  11.1km/h 14.0mph /  22.5km/h 26% 0.00in /  0mm meteobridge W/m2
12:28 81.7 °F /  27.6 °C 43.5 °F /  6.4 °C 29.49in /  998.5hPa NNE 10.1mph /  16.3km/h 10.1mph /  16.3km/h 26% 0.00in /  0mm meteobridge W/m2
12:34 82.6 °F /  28.1 °C 42.1 °F /  5.6 °C 29.49in /  998.5hPa NE 4.0mph /  6.4km/h 5.0mph /  8km/h 24% 0.00in /  0mm meteobridge W/m2
12:41 83.8 °F /  28.8 °C 43.2 °F /  6.2 °C 29.49in /  998.5hPa SSE 6.0mph /  9.7km/h 9.0mph /  14.5km/h 24% 0.00in /  0mm meteobridge W/m2
12:47 84.6 °F /  29.2 °C 42.6 °F /  5.9 °C 29.49in /  998.5hPa Calm   2.0mph /  3.2km/h 23% 0.00in /  0mm meteobridge W/m2
12:53 86.2 °F /  30.1 °C 42.8 °F /  6 °C 29.49in /  998.5hPa NNE 2.0mph /  3.2km/h 13.0mph /  20.9km/h 22% 0.00in /  0mm meteobridge W/m2
12:59 84.7 °F /  29.3 °C 41.7 °F /  5.4 °C 29.48in /  998.2hPa ENE 0.9mph /  1.4km/h 3.0mph /  4.8km/h 22% 0.00in /  0mm meteobridge W/m2
13:05 84.7 °F /  29.3 °C 41.7 °F /  5.4 °C 29.48in /  998.2hPa SSW 0.9mph /  1.4km/h 3.0mph /  4.8km/h 22% 0.00in /  0mm meteobridge W/m2
13:11 85.6 °F /  29.8 °C 42.4 °F /  5.8 °C 29.48in /  998.2hPa SE 0.9mph /  1.4km/h 2.0mph /  3.2km/h 22% 0.00in /  0mm meteobridge W/m2
13:18 88.2 °F /  31.2 °C 43.3 °F /  6.3 °C 29.48in /  998.2hPa SE 2.0mph /  3.2km/h 6.0mph /  9.7km/h 21% 0.00in /  0mm meteobridge W/m2
13:24 87.4 °F /  30.8 °C 42.8 °F /  6 °C 29.47in /  997.9hPa ESE 4.0mph /  6.4km/h 5.0mph /  8km/h 21% 0.00in /  0mm meteobridge W/m2
13:30 88.2 °F /  31.2 °C 43.3 °F /  6.3 °C 29.47in /  997.9hPa ENE 0.9mph /  1.4km/h 7.0mph /  11.3km/h 21% 0.00in /  0mm meteobridge W/m2
13:36 88.5 °F /  31.4 °C 42.3 °F /  5.7 °C 29.47in /  997.9hPa SSE 4.9mph /  7.9km/h 17.0mph /  27.4km/h 20% 0.00in /  0mm meteobridge W/m2
13:42 86.7 °F /  30.4 °C 42.1 °F /  5.6 °C 29.47in /  997.9hPa SSE 6.0mph /  9.7km/h 10.0mph /  16.1km/h 21% 0.00in /  0mm meteobridge W/m2
13:48 87.6 °F /  30.9 °C 42.8 °F /  6 °C 29.47in /  997.9hPa SE 6.9mph /  11.1km/h 10.0mph /  16.1km/h 21% 0.00in /  0mm meteobridge W/m2
13:54 87.6 °F /  30.9 °C 42.8 °F /  6 °C 29.47in /  997.9hPa South 4.9mph /  7.9km/h 6.0mph /  9.7km/h 21% 0.00in /  0mm meteobridge W/m2
14:00 85.3 °F /  29.6 °C 42.1 °F /  5.6 °C 29.46in /  997.5hPa SE 2.9mph /  4.7km/h 6.0mph /  9.7km/h 22% 0.00in /  0mm meteobridge W/m2
14:07 84.4 °F /  29.1 °C 41.4 °F /  5.2 °C 29.46in /  997.5hPa SSW 11.0mph /  17.7km/h 14.0mph /  22.5km/h 22% 0.00in /  0mm meteobridge W/m2
14:13 84.4 °F /  29.1 °C 41.4 °F /  5.2 °C 29.46in /  997.5hPa South 6.0mph /  9.7km/h 11.0mph /  17.7km/h 22% 0.00in /  0mm meteobridge W/m2
14:19 86.7 °F /  30.4 °C 42.1 °F /  5.6 °C 29.46in /  997.5hPa NNE 8.9mph /  14.3km/h 18.0mph /  29km/h 21% 0.00in /  0mm meteobridge W/m2
14:25 87.4 °F /  30.8 °C 41.4 °F /  5.2 °C 29.45in /  997.2hPa NNE 13.0mph /  20.9km/h 13.0mph /  20.9km/h 20% 0.00in /  0mm meteobridge W/m2
14:31 87.1 °F /  30.6 °C 41.2 °F /  5.1 °C 29.45in /  997.2hPa ENE 4.0mph /  6.4km/h 13.0mph /  20.9km/h 20% 0.00in /  0mm meteobridge W/m2
14:37 87.1 °F /  30.6 °C 41.2 °F /  5.1 °C 29.44in /  996.8hPa North 13.0mph /  20.9km/h 13.0mph /  20.9km/h 20% 0.00in /  0mm meteobridge W/m2
14:43 86.4 °F /  30.2 °C 41.9 °F /  5.5 °C 29.45in /  997.2hPa South 6.0mph /  9.7km/h 9.0mph /  14.5km/h 21% 0.00in /  0mm meteobridge W/m2
14:49 85.5 °F /  29.7 °C 41.0 °F /  5 °C 29.44in /  996.8hPa South 4.9mph /  7.9km/h 6.0mph /  9.7km/h 21% 0.00in /  0mm meteobridge W/m2
14:55 84.2 °F /  29 °C 41.2 °F /  5.1 °C 29.44in /  996.8hPa East 4.0mph /  6.4km/h 11.0mph /  17.7km/h 22% 0.00in /  0mm meteobridge W/m2
15:02 83.8 °F /  28.8 °C 41.0 °F /  5 °C 29.44in /  996.8hPa South 8.9mph /  14.3km/h 17.0mph /  27.4km/h 22% 0.00in /  0mm meteobridge W/m2
15:08 84.9 °F /  29.4 °C 41.9 °F /  5.5 °C 29.43in /  996.5hPa SE 10.1mph /  16.3km/h 12.0mph /  19.3km/h 22% 0.00in /  0mm meteobridge W/m2
15:14 88.2 °F /  31.2 °C 43.3 °F /  6.3 °C 29.43in /  996.5hPa SSE 4.9mph /  7.9km/h 7.0mph /  11.3km/h 21% 0.00in /  0mm meteobridge W/m2
15:20 90.1 °F /  32.3 °C 43.7 °F /  6.5 °C 29.43in /  996.5hPa ESE 2.0mph /  3.2km/h 7.0mph /  11.3km/h 20% 0.00in /  0mm meteobridge W/m2
15:26 91.6 °F /  33.1 °C 43.5 °F /  6.4 °C 29.43in /  996.5hPa SE 4.9mph /  7.9km/h 12.0mph /  19.3km/h 19% 0.00in /  0mm meteobridge W/m2
15:32 89.4 °F /  31.9 °C 43.0 °F /  6.1 °C 29.42in /  996.2hPa SSE 10.1mph /  16.3km/h 18.0mph /  29km/h 20% 0.00in /  0mm meteobridge W/m2
15:38 89.2 °F /  31.8 °C 41.5 °F /  5.3 °C 29.42in /  996.2hPa SE 2.9mph /  4.7km/h 9.0mph /  14.5km/h 19% 0.00in /  0mm meteobridge W/m2
15:44 89.1 °F /  31.7 °C 41.4 °F /  5.2 °C 29.42in /  996.2hPa North 2.0mph /  3.2km/h 5.0mph /  8km/h 19% 0.00in /  0mm meteobridge W/m2
15:50 86.7 °F /  30.4 °C 40.8 °F /  4.9 °C 29.42in /  996.2hPa SSW 6.9mph /  11.1km/h 13.0mph /  20.9km/h 20% 0.00in /  0mm meteobridge W/m2
15:57 84.7 °F /  29.3 °C 40.5 °F /  4.7 °C 29.42in /  996.2hPa SW 4.0mph /  6.4km/h 5.0mph /  8km/h 21% 0.00in /  0mm meteobridge W/m2
16:03 85.6 °F /  29.8 °C 41.2 °F /  5.1 °C 29.41in /  995.8hPa Calm   2.0mph /  3.2km/h 21% 0.00in /  0mm meteobridge W/m2
16:09 85.3 °F /  29.6 °C 41.0 °F /  5 °C 29.41in /  995.8hPa SW 8.9mph /  14.3km/h 15.0mph /  24.1km/h 21% 0.00in /  0mm meteobridge W/m2
16:15 84.4 °F /  29.1 °C 41.4 °F /  5.2 °C 29.41in /  995.8hPa SSE 8.1mph /  13km/h 14.0mph /  22.5km/h 22% 0.00in /  0mm meteobridge W/m2
16:21 84.4 °F /  29.1 °C 41.4 °F /  5.2 °C 29.41in /  995.8hPa SE 6.9mph /  11.1km/h 10.0mph /  16.1km/h 22% 0.00in /  0mm meteobridge W/m2
16:27 84.2 °F /  29 °C 41.2 °F /  5.1 °C 29.41in /  995.8hPa South 4.0mph /  6.4km/h 11.0mph /  17.7km/h 22% 0.00in /  0mm meteobridge W/m2
16:33 83.5 °F /  28.6 °C 40.6 °F /  4.8 °C 29.40in /  995.5hPa SE 14.1mph /  22.7km/h 16.0mph /  25.7km/h 22% 0.00in /  0mm meteobridge W/m2
16:39 83.1 °F /  28.4 °C 40.3 °F /  4.6 °C 29.40in /  995.5hPa SE 6.0mph /  9.7km/h 10.0mph /  16.1km/h 22% 0.00in /  0mm meteobridge W/m2
16:46 83.1 °F /  28.4 °C 40.3 °F /  4.6 °C 29.40in /  995.5hPa South 2.0mph /  3.2km/h 13.0mph /  20.9km/h 22% 0.00in /  0mm meteobridge W/m2
16:52 83.1 °F /  28.4 °C 41.5 °F /  5.3 °C 29.40in /  995.5hPa SE 12.1mph /  19.5km/h 16.0mph /  25.7km/h 23% 0.00in /  0mm meteobridge W/m2
16:58 83.1 °F /  28.4 °C 41.5 °F /  5.3 °C 29.40in /  995.5hPa South 6.0mph /  9.7km/h 8.0mph /  12.9km/h 23% 0.00in /  0mm meteobridge W/m2
17:04 83.7 °F /  28.7 °C 41.9 °F /  5.5 °C 29.40in /  995.5hPa SSW 0.9mph /  1.4km/h 6.0mph /  9.7km/h 23% 0.00in /  0mm meteobridge W/m2
17:10 85.1 °F /  29.5 °C 41.9 °F /  5.5 °C 29.40in /  995.5hPa SSE 4.0mph /  6.4km/h 4.0mph /  6.4km/h 22% 0.00in /  0mm meteobridge W/m2
17:16 86.2 °F /  30.1 °C 42.8 °F /  6 °C 29.40in /  995.5hPa South 2.0mph /  3.2km/h 5.0mph /  8km/h 22% 0.00in /  0mm meteobridge W/m2
17:22 87.1 °F /  30.6 °C 43.7 °F /  6.5 °C 29.40in /  995.5hPa SSE 4.9mph /  7.9km/h 7.0mph /  11.3km/h 22% 0.00in /  0mm meteobridge W/m2
17:29 85.3 °F /  29.6 °C 42.1 °F /  5.6 °C 29.40in /  995.5hPa SSW 12.1mph /  19.5km/h 17.0mph /  27.4km/h 22% 0.00in /  0mm meteobridge W/m2
17:35 84.0 °F /  28.9 °C 42.3 °F /  5.7 °C 29.40in /  995.5hPa SSE 10.1mph /  16.3km/h 11.0mph /  17.7km/h 23% 0.00in /  0mm meteobridge W/m2
17:41 83.7 °F /  28.7 °C 41.9 °F /  5.5 °C 29.41in /  995.8hPa South 2.9mph /  4.7km/h 11.0mph /  17.7km/h 23% 0.00in /  0mm meteobridge W/m2
17:47 83.5 °F /  28.6 °C 41.7 °F /  5.4 °C 29.41in /  995.8hPa SSW 2.9mph /  4.7km/h 7.0mph /  11.3km/h 23% 0.00in /  0mm meteobridge W/m2
17:53 84.2 °F /  29 °C 42.4 °F /  5.8 °C 29.41in /  995.8hPa ESE 4.0mph /  6.4km/h 4.0mph /  6.4km/h 23% 0.00in /  0mm meteobridge W/m2
18:00 85.6 °F /  29.8 °C 42.4 °F /  5.8 °C 29.41in /  995.8hPa SSW 6.0mph /  9.7km/h 13.0mph /  20.9km/h 22% 0.00in /  0mm meteobridge W/m2
18:06 85.1 °F /  29.5 °C 41.9 °F /  5.5 °C 29.41in /  995.8hPa South 4.0mph /  6.4km/h 11.0mph /  17.7km/h 22% 0.00in /  0mm meteobridge W/m2
18:14 84.0 °F /  28.9 °C 42.3 °F /  5.7 °C 29.41in /  995.8hPa SSW 6.9mph /  11.1km/h 11.0mph /  17.7km/h 23% 0.00in /  0mm meteobridge W/m2
18:20 84.6 °F /  29.2 °C 42.6 °F /  5.9 °C 29.41in /  995.8hPa SSW 2.0mph /  3.2km/h 6.0mph /  9.7km/h 23% 0.00in /  0mm meteobridge W/m2
18:26 84.7 °F /  29.3 °C 41.7 °F /  5.4 °C 29.41in /  995.8hPa SW 0.9mph /  1.4km/h 10.0mph /  16.1km/h 22% 0.00in /  0mm meteobridge W/m2
18:32 85.5 °F /  29.7 °C 43.5 °F /  6.4 °C 29.42in /  996.2hPa SSE 4.0mph /  6.4km/h 9.0mph /  14.5km/h 23% 0.00in /  0mm meteobridge W/m2
18:38 85.8 °F /  29.9 °C 42.6 °F /  5.9 °C 29.42in /  996.2hPa SSW 8.9mph /  14.3km/h 15.0mph /  24.1km/h 22% 0.00in /  0mm meteobridge W/m2
19:01 84.7 °F /  29.3 °C 42.8 °F /  6 °C 29.43in /  996.5hPa SSE 11.0mph /  17.7km/h 16.0mph /  25.7km/h 23% 0.00in /  0mm meteobridge W/m2
19:07 84.0 °F /  28.9 °C 43.3 °F /  6.3 °C 29.45in /  997.2hPa ESE 6.9mph /  11.1km/h 16.0mph /  25.7km/h 24% 0.00in /  0mm meteobridge W/m2
19:13 83.1 °F /  28.4 °C 43.7 °F /  6.5 °C 29.46in /  997.5hPa ENE 4.9mph /  7.9km/h 12.0mph /  19.3km/h 25% 0.00in /  0mm meteobridge W/m2
19:19 82.4 °F /  28 °C 43.0 °F /  6.1 °C 29.46in /  997.5hPa NNE 2.9mph /  4.7km/h 6.0mph /  9.7km/h 25% 0.00in /  0mm meteobridge W/m2
19:25 80.4 °F /  26.9 °C 43.3 °F /  6.3 °C 29.47in /  997.9hPa ENE 6.0mph /  9.7km/h 9.0mph /  14.5km/h 27% 0.00in /  0mm meteobridge W/m2
19:31 79.9 °F /  26.6 °C 43.9 °F /  6.6 °C 29.46in /  997.5hPa NNE 14.1mph /  22.7km/h 16.0mph /  25.7km/h 28% 0.00in /  0mm meteobridge W/m2
19:37 79.2 °F /  26.2 °C 43.2 °F /  6.2 °C 29.49in /  998.5hPa WNW 6.0mph /  9.7km/h 6.0mph /  9.7km/h 28% 0.00in /  0mm meteobridge W/m2
19:43 79.2 °F /  26.2 °C 43.2 °F /  6.2 °C 29.48in /  998.2hPa WNW 6.0mph /  9.7km/h -999.0mph /  -1607.7km/h 28% 0.00in /  0mm meteobridge W/m2
19:49 79.2 °F /  26.2 °C 43.2 °F /  6.2 °C 29.45in /  997.2hPa WNW 6.0mph /  9.7km/h -999.0mph /  -1607.7km/h 28% 0.00in /  0mm meteobridge W/m2
Regenstein, Windhoek, Namibia
Compliments of Weather Underground - 2.5 mb